Time;durP1;ratioP1;P1;durP2;ratioP2;P2;SDS_P1;SDS_P2;PMS_P1;PMS_P2;Temp;Humidity;BMP_temperature;BMP_pressure;BME280_temperature;BME280_humidity;BME280_pressure;Samples;Min_cycle;Max_cycle;Signal;HPM_P1;HPM_P2
2023/05/23 00:00:14;;;;;;;14.57;6.07;;;12.80;99.90;;;;;;5072930;28;20102;-69
2023/05/23 00:02:41;;;;;;;12.43;5.45;;;12.80;99.90;;;;;;5072431;28;20052;-69
2023/05/23 00:05:08;;;;;;;8.25;5.65;;;12.80;99.90;;;;;;5068009;28;20053;-69
2023/05/23 00:07:35;;;;;;;11.38;6.15;;;12.80;99.90;;;;;;5067825;28;20052;-68
2023/05/23 00:10:02;;;;;;;10.50;5.93;;;12.80;99.90;;;;;;5067652;28;20110;-69
2023/05/23 00:12:29;;;;;;;15.75;6.53;;;12.80;99.90;;;;;;5067294;28;20454;-69
2023/05/23 00:14:56;;;;;;;12.32;5.75;;;12.70;99.90;;;;;;5068459;28;20113;-68
2023/05/23 00:17:24;;;;;;;12.15;6.13;;;12.70;99.90;;;;;;5068254;28;20129;-68
2023/05/23 00:19:51;;;;;;;12.35;5.50;;;12.70;99.90;;;;;;5075172;28;20503;-67
2023/05/23 00:22:18;;;;;;;11.63;5.45;;;12.70;99.90;;;;;;5055441;28;20045;-68
2023/05/23 00:24:45;;;;;;;17.30;6.00;;;12.70;99.90;;;;;;5067344;28;20076;-68
2023/05/23 00:27:12;;;;;;;15.85;6.30;;;12.70;99.90;;;;;;5067702;28;20111;-69
2023/05/23 00:29:38;;;;;;;13.55;7.00;;;12.60;99.90;;;;;;5054577;28;20515;-68
2023/05/23 00:32:05;;;;;;;15.90;6.93;;;12.60;99.90;;;;;;5067637;28;20491;-69
2023/05/23 00:34:33;;;;;;;16.88;7.05;;;12.60;99.90;;;;;;5067532;28;20044;-68
2023/05/23 00:37:01;;;;;;;15.52;6.65;;;12.60;99.90;;;;;;5067743;28;20036;-68
2023/05/23 00:39:28;;;;;;;12.18;6.38;;;12.60;99.90;;;;;;5067600;28;20131;-69
2023/05/23 00:41:55;;;;;;;13.82;6.03;;;12.60;99.90;;;;;;5070949;28;20549;-69
2023/05/23 00:44:21;;;;;;;12.13;6.32;;;12.50;99.90;;;;;;5071341;28;20060;-68
2023/05/23 00:46:51;;;;;;;15.50;6.93;;;12.50;99.90;;;;;;5071323;28;20044;-68
2023/05/23 00:49:19;;;;;;;15.05;6.38;;;12.50;99.90;;;;;;5071027;28;20049;-68
2023/05/23 00:51:48;;;;;;;11.60;6.53;;;12.40;99.90;;;;;;5071350;28;20090;-68
2023/05/23 00:54:16;;;;;;;14.48;6.55;;;12.40;99.90;;;;;;5071352;28;20049;-68
2023/05/23 00:56:43;;;;;;;9.13;5.68;;;12.40;99.90;;;;;;5081256;28;20110;-67
2023/05/23 00:59:11;;;;;;;15.15;6.15;;;12.40;99.90;;;;;;5060822;28;20054;-67
2023/05/23 01:01:39;;;;;;;14.65;7.10;;;12.30;99.90;;;;;;5044659;28;20044;-68
2023/05/23 01:04:05;;;;;;;12.93;5.95;;;12.30;99.90;;;;;;5061918;28;20572;-69
2023/05/23 01:06:35;;;;;;;13.48;6.03;;;12.30;99.90;;;;;;4814356;28;10001237;-69
2023/05/23 01:09:02;;;;;;;17.92;8.18;;;12.30;99.90;;;;;;5072241;28;20629;-69
2023/05/23 01:11:34;;;;;;;17.67;7.05;;;12.30;99.90;;;;;;5079334;28;20136;-69
2023/05/23 01:14:09;;;;;;;15.60;6.43;;;12.20;99.90;;;;;;5070246;28;20040;-67
2023/05/23 01:16:56;;;;;;;15.90;6.88;;;12.20;99.90;;;;;;5030565;28;20098;-68
2023/05/23 01:19:42;;;;;;;18.60;7.22;;;12.20;99.90;;;;;;5057224;28;20078;-69
2023/05/23 01:22:23;;;;;;;12.63;6.55;;;12.20;99.90;;;;;;5070663;28;20050;-67
2023/05/23 01:24:54;;;;;;;13.70;6.38;;;12.10;99.90;;;;;;5058351;28;20048;-69
2023/05/23 01:27:44;;;;;;;13.63;6.38;;;12.00;99.90;;;;;;5059274;28;20083;-69
2023/05/23 01:30:11;;;;;;;13.13;6.30;;;12.00;99.90;;;;;;5061706;28;20056;-69
2023/05/23 01:32:39;;;;;;;19.88;6.97;;;11.90;99.90;;;;;;5058064;28;20074;-68
2023/05/23 01:35:06;;;;;;;13.55;6.25;;;11.90;99.90;;;;;;5062000;28;20047;-68
2023/05/23 01:37:33;;;;;;;23.42;7.70;;;11.90;99.90;;;;;;5028370;28;20101;-68
2023/05/23 01:39:59;;;;;;;17.13;6.68;;;11.90;99.90;;;;;;5070342;28;20495;-67
2023/05/23 01:42:27;;;;;;;21.40;7.53;;;11.90;99.90;;;;;;5071126;28;20492;-69
2023/05/23 01:44:58;;;;;;;14.93;6.70;;;11.90;99.90;;;;;;5070613;28;20044;-68
2023/05/23 01:47:24;;;;;;;13.23;6.25;;;11.90;99.90;;;;;;5064212;28;20123;-66
2023/05/23 01:49:51;;;;;;;11.73;6.40;;;11.90;99.90;;;;;;5063817;28;20515;-68
2023/05/23 01:52:18;;;;;;;19.25;6.63;;;11.80;99.90;;;;;;5080023;28;20044;-70
2023/05/23 01:54:47;;;;;;;10.82;6.18;;;11.80;99.90;;;;;;5056267;28;20076;-70
2023/05/23 01:57:14;;;;;;;13.23;6.78;;;11.80;99.90;;;;;;5055710;28;20075;-69
2023/05/23 01:59:41;;;;;;;12.98;6.32;;;11.80;99.90;;;;;;5056019;28;20048;-69
2023/05/23 02:02:08;;;;;;;12.05;7.03;;;11.70;99.90;;;;;;5064359;28;20056;-67
2023/05/23 02:04:35;;;;;;;12.52;6.45;;;11.70;99.90;;;;;;5070362;28;20101;-68
2023/05/23 02:07:01;;;;;;;9.38;6.35;;;11.80;99.90;;;;;;5070706;28;20044;-70
2023/05/23 02:09:28;;;;;;;16.70;6.57;;;11.70;99.90;;;;;;5069891;28;20088;-69
2023/05/23 02:11:55;;;;;;;12.82;6.93;;;11.70;99.90;;;;;;5072497;28;20048;-69
2023/05/23 02:14:22;;;;;;;15.20;6.60;;;11.70;99.90;;;;;;5069284;28;20044;-68
2023/05/23 02:16:51;;;;;;;9.88;5.80;;;11.50;99.90;;;;;;5070192;28;20487;-67
2023/05/23 02:19:18;;;;;;;18.92;7.57;;;11.50;99.90;;;;;;5070253;28;20052;-68
2023/05/23 02:21:45;;;;;;;11.60;6.45;;;11.50;99.90;;;;;;5069069;28;20265;-69
2023/05/23 02:24:12;;;;;;;11.48;6.03;;;11.50;99.90;;;;;;5069805;28;20056;-68
2023/05/23 02:26:40;;;;;;;13.43;6.30;;;11.50;99.90;;;;;;5069355;28;20059;-69
2023/05/23 02:29:07;;;;;;;12.63;6.43;;;11.50;99.90;;;;;;5061282;28;20044;-70
2023/05/23 02:31:34;;;;;;;13.77;5.88;;;11.50;99.90;;;;;;5069812;28;20726;-70
2023/05/23 02:34:01;;;;;;;13.43;5.90;;;11.50;99.90;;;;;;5068689;28;20438;-68
2023/05/23 02:36:28;;;;;;;11.10;6.60;;;11.50;99.90;;;;;;5061176;28;20040;-68
2023/05/23 02:38:55;;;;;;;11.98;5.97;;;11.50;99.90;;;;;;5069791;28;20048;-68
2023/05/23 02:41:22;;;;;;;15.75;8.00;;;11.40;99.90;;;;;;5069204;28;20097;-69
2023/05/23 02:43:49;;;;;;;12.65;6.57;;;11.40;99.90;;;;;;5069147;28;20049;-69
2023/05/23 02:46:15;;;;;;;11.60;6.38;;;11.40;99.90;;;;;;5069443;28;20453;-67
2023/05/23 02:48:42;;;;;;;12.80;5.72;;;11.40;99.90;;;;;;5069042;28;20548;-69
2023/05/23 02:51:09;;;;;;;17.55;6.65;;;11.40;99.90;;;;;;5069256;28;20076;-67
2023/05/23 02:53:36;;;;;;;11.07;6.05;;;11.40;99.90;;;;;;5069039;28;20084;-68
2023/05/23 02:56:02;;;;;;;9.82;5.43;;;11.40;99.90;;;;;;5068904;28;20098;-69
2023/05/23 02:58:29;;;;;;;14.10;6.07;;;11.50;99.90;;;;;;5063419;28;20071;-69
2023/05/23 03:00:56;;;;;;;13.27;6.20;;;11.50;99.90;;;;;;5069357;28;20048;-69
2023/05/23 03:03:23;;;;;;;16.23;6.90;;;11.50;99.90;;;;;;5068464;28;20090;-68
2023/05/23 03:05:50;;;;;;;11.35;5.68;;;11.50;99.90;;;;;;5039829;28;20052;-68
2023/05/23 03:08:17;;;;;;;11.88;5.60;;;11.40;99.90;;;;;;5069160;28;20048;-68
2023/05/23 03:10:43;;;;;;;14.55;6.95;;;11.50;99.90;;;;;;5069257;28;20123;-68
2023/05/23 03:13:10;;;;;;;15.25;5.55;;;11.50;99.90;;;;;;5068521;28;20052;-69
2023/05/23 03:15:37;;;;;;;15.40;5.80;;;11.50;99.90;;;;;;5068443;28;20451;-69
2023/05/23 03:18:04;;;;;;;10.55;6.05;;;11.50;99.90;;;;;;5068420;28;20270;-69
2023/05/23 03:20:31;;;;;;;12.02;5.10;;;11.50;99.90;;;;;;5068888;28;20088;-69
2023/05/23 03:22:58;;;;;;;15.13;5.97;;;11.50;99.90;;;;;;5068698;28;20040;-68
2023/05/23 03:25:25;;;;;;;17.08;5.70;;;11.40;99.90;;;;;;5065949;28;20476;-69
2023/05/23 03:27:51;;;;;;;15.40;5.78;;;11.40;99.90;;;;;;5056372;28;20079;-69
2023/05/23 03:30:19;;;;;;;11.00;5.72;;;11.50;99.90;;;;;;5067330;28;20083;-68
2023/05/23 03:32:45;;;;;;;13.43;4.88;;;11.50;99.90;;;;;;5068694;28;20045;-68
2023/05/23 03:35:12;;;;;;;9.73;4.75;;;11.50;99.90;;;;;;5068184;28;20136;-68
2023/05/23 03:37:39;;;;;;;13.65;5.50;;;11.50;99.90;;;;;;5062649;28;20465;-68
2023/05/23 03:40:07;;;;;;;12.00;4.78;;;11.50;99.90;;;;;;5068189;28;20172;-68
2023/05/23 03:42:34;;;;;;;9.93;5.35;;;11.50;99.90;;;;;;5068728;28;20051;-68
2023/05/23 03:45:00;;;;;;;9.32;4.60;;;11.50;99.90;;;;;;5068357;28;20101;-68
2023/05/23 03:47:27;;;;;;;12.27;4.88;;;11.40;99.90;;;;;;5068461;28;20044;-68
2023/05/23 03:49:54;;;;;;;15.15;5.18;;;11.30;99.90;;;;;;5067955;28;20041;-68
2023/05/23 03:52:21;;;;;;;8.93;4.72;;;11.30;99.90;;;;;;5068412;28;20098;-68
2023/05/23 03:54:48;;;;;;;13.13;5.28;;;11.30;99.90;;;;;;5036288;28;20049;-68
2023/05/23 03:57:15;;;;;;;10.88;4.85;;;11.30;99.90;;;;;;5068280;28;20474;-69
2023/05/23 03:59:41;;;;;;;10.15;4.70;;;11.40;99.90;;;;;;5067659;28;20527;-69
2023/05/23 04:02:08;;;;;;;11.27;4.95;;;11.40;99.90;;;;;;5057393;28;20069;-69
2023/05/23 04:04:35;;;;;;;9.27;5.07;;;11.30;99.90;;;;;;5065358;28;20052;-68
2023/05/23 04:07:04;;;;;;;11.18;4.80;;;11.40;99.90;;;;;;5067701;28;20438;-68
2023/05/23 04:09:31;;;;;;;12.73;4.55;;;11.40;99.90;;;;;;5067101;28;20052;-69
2023/05/23 04:11:57;;;;;;;11.38;4.93;;;11.40;99.90;;;;;;5055057;28;20037;-69
2023/05/23 04:14:24;;;;;;;11.63;5.07;;;11.30;99.90;;;;;;5067396;28;20056;-69
2023/05/23 04:16:51;;;;;;;6.45;4.05;;;11.30;99.90;;;;;;5066191;28;20117;-68
2023/05/23 04:19:18;;;;;;;10.77;5.00;;;11.30;99.90;;;;;;5067509;28;20726;-68
2023/05/23 04:21:45;;;;;;;11.77;4.68;;;11.40;99.90;;;;;;5067600;28;20123;-68
2023/05/23 04:24:12;;;;;;;8.02;4.25;;;11.30;99.90;;;;;;5067456;28;20076;-68
2023/05/23 04:26:38;;;;;;;10.07;4.40;;;11.30;99.90;;;;;;5067963;28;20124;-69
2023/05/23 04:29:05;;;;;;;11.95;5.25;;;11.30;99.90;;;;;;5067145;28;20106;-69
2023/05/23 04:31:33;;;;;;;10.80;4.78;;;11.30;99.90;;;;;;5067060;28;20487;-68
2023/05/23 04:34:01;;;;;;;15.15;4.63;;;11.30;99.90;;;;;;5067544;28;20136;-68
2023/05/23 04:36:29;;;;;;;12.05;4.15;;;11.30;99.90;;;;;;5067103;28;20040;-69
2023/05/23 04:38:55;;;;;;;12.55;5.95;;;11.30;99.90;;;;;;5067288;28;20052;-69
2023/05/23 04:41:22;;;;;;;11.95;4.45;;;11.30;99.90;;;;;;5066931;28;20047;-68
2023/05/23 04:43:53;;;;;;;13.35;5.00;;;11.40;99.90;;;;;;5066000;28;20044;-68
2023/05/23 04:46:25;;;;;;;12.00;4.90;;;11.40;99.90;;;;;;5065845;28;20054;-70
2023/05/23 04:48:53;;;;;;;8.05;3.92;;;11.40;99.90;;;;;;5065580;28;20080;-70
2023/05/23 04:51:21;;;;;;;9.20;4.78;;;11.40;99.90;;;;;;5065755;28;20041;-69
2023/05/23 04:53:48;;;;;;;7.53;3.42;;;11.50;99.90;;;;;;5056196;28;20504;-68
2023/05/23 04:56:21;;;;;;;12.50;5.10;;;11.40;99.90;;;;;;5064593;28;20058;-68
2023/05/23 04:58:48;;;;;;;7.88;4.32;;;11.50;99.90;;;;;;5065991;28;20106;-69
2023/05/23 05:01:15;;;;;;;6.15;3.50;;;11.50;99.90;;;;;;5065502;28;20083;-68
2023/05/23 05:03:42;;;;;;;11.45;4.00;;;11.50;99.90;;;;;;5067340;28;20066;-68
2023/05/23 05:06:09;;;;;;;9.05;4.30;;;11.50;99.90;;;;;;5067071;28;20079;-68
2023/05/23 05:08:36;;;;;;;8.93;4.15;;;11.50;99.90;;;;;;5066272;28;20049;-68
2023/05/23 05:11:03;;;;;;;13.32;3.67;;;11.60;99.90;;;;;;5066984;28;20094;-68
2023/05/23 05:13:29;;;;;;;15.80;4.55;;;11.60;99.90;;;;;;5066666;28;20045;-67
2023/05/23 05:15:57;;;;;;;9.90;5.55;;;11.60;99.90;;;;;;5066875;28;20076;-69
2023/05/23 05:18:27;;;;;;;10.93;3.88;;;11.60;99.90;;;;;;5066684;28;20127;-68
2023/05/23 05:20:54;;;;;;;13.50;4.10;;;11.70;99.90;;;;;;5055480;28;20045;-68
2023/05/23 05:23:24;;;;;;;6.20;3.38;;;11.80;99.90;;;;;;5066520;28;20052;-68
2023/05/23 05:25:51;;;;;;;14.48;3.97;;;11.70;99.90;;;;;;5067388;28;20133;-68
2023/05/23 05:28:17;;;;;;;13.27;4.10;;;11.70;99.90;;;;;;5069800;28;20041;-68
2023/05/23 05:30:45;;;;;;;11.32;4.18;;;11.70;99.90;;;;;;5070185;28;20060;-67
2023/05/23 05:33:12;;;;;;;13.88;3.47;;;11.70;99.90;;;;;;5069884;28;20116;-68
2023/05/23 05:35:39;;;;;;;12.48;4.15;;;11.80;99.90;;;;;;5062601;28;20052;-68
2023/05/23 05:38:07;;;;;;;8.70;3.33;;;11.70;99.90;;;;;;5068467;28;20041;-68
2023/05/23 05:40:34;;;;;;;12.38;4.18;;;11.70;99.90;;;;;;5070084;28;20056;-69
2023/05/23 05:43:01;;;;;;;9.75;3.47;;;11.80;99.90;;;;;;5069621;28;20199;-69
2023/05/23 05:45:27;;;;;;;9.35;3.70;;;11.80;99.90;;;;;;5070229;28;20048;-69
2023/05/23 05:47:54;;;;;;;7.85;3.92;;;11.80;99.90;;;;;;5069470;28;20080;-70
2023/05/23 05:50:21;;;;;;;20.17;3.95;;;11.80;99.90;;;;;;5070642;28;20063;-69
2023/05/23 05:52:48;;;;;;;16.42;4.50;;;11.90;99.90;;;;;;5069671;28;20070;-68
2023/05/23 05:55:15;;;;;;;9.00;3.53;;;11.90;99.90;;;;;;5070154;28;20488;-69
2023/05/23 05:57:41;;;;;;;14.27;3.63;;;12.00;99.90;;;;;;5071811;28;20076;-67
2023/05/23 06:00:13;;;;;;;10.07;3.55;;;12.00;99.90;;;;;;5070212;28;20080;-67
2023/05/23 06:02:43;;;;;;;11.32;3.40;;;12.00;99.90;;;;;;5071567;28;20102;-68
2023/05/23 06:05:15;;;;;;;11.82;4.00;;;12.00;99.90;;;;;;5070547;28;20045;-68
2023/05/23 06:07:42;;;;;;;7.93;3.10;;;12.10;99.90;;;;;;5071874;28;20511;-67
2023/05/23 06:10:12;;;;;;;13.43;3.58;;;12.10;99.90;;;;;;5069764;28;20044;-69
2023/05/23 06:12:39;;;;;;;12.38;3.15;;;12.10;99.90;;;;;;5056982;28;20040;-69
2023/05/23 06:15:08;;;;;;;10.43;3.53;;;12.20;99.90;;;;;;5064056;28;20049;-68
2023/05/23 06:17:35;;;;;;;13.43;2.83;;;12.20;99.90;;;;;;5068558;28;20051;-68
2023/05/23 06:20:02;;;;;;;11.27;3.28;;;12.30;99.90;;;;;;5064144;28;20044;-69
2023/05/23 06:22:29;;;;;;;16.15;4.22;;;12.30;99.90;;;;;;5069937;28;20049;-68
2023/05/23 06:24:56;;;;;;;12.93;3.45;;;12.30;99.90;;;;;;5056277;28;20550;-69
2023/05/23 06:27:23;;;;;;;19.60;3.25;;;12.40;99.90;;;;;;5069461;28;20104;-70
2023/05/23 06:29:50;;;;;;;14.32;3.65;;;12.40;99.90;;;;;;5069945;28;20159;-71
2023/05/23 06:32:17;;;;;;;17.83;3.60;;;12.50;99.90;;;;;;5069818;28;20356;-69
2023/05/23 06:34:43;;;;;;;12.05;2.92;;;12.50;99.90;;;;;;5070642;28;20048;-71
2023/05/23 06:37:10;;;;;;;7.85;2.55;;;12.60;99.90;;;;;;5069934;28;20045;-72
2023/05/23 06:39:37;;;;;;;11.65;3.38;;;12.60;99.90;;;;;;5070557;28;20481;-66
2023/05/23 06:42:04;;;;;;;19.33;3.50;;;12.60;99.90;;;;;;5071468;28;20048;-70
2023/05/23 06:44:31;;;;;;;10.77;3.25;;;12.70;99.90;;;;;;5070656;28;20510;-70
2023/05/23 06:46:58;;;;;;;19.60;3.42;;;12.70;99.90;;;;;;5070626;28;20071;-69
2023/05/23 06:49:25;;;;;;;13.77;3.22;;;12.80;99.90;;;;;;5068015;28;20056;-70
2023/05/23 06:51:52;;;;;;;9.73;3.00;;;12.70;99.90;;;;;;5065500;28;20048;-70
2023/05/23 06:54:18;;;;;;;7.70;3.65;;;12.70;99.90;;;;;;5062539;28;20290;-70
2023/05/23 06:56:45;;;;;;;9.60;2.45;;;12.70;99.90;;;;;;5067587;28;20048;-71
2023/05/23 06:59:12;;;;;;;15.85;3.88;;;12.80;99.90;;;;;;5058692;28;20544;-70
2023/05/23 07:01:39;;;;;;;8.85;2.88;;;12.80;99.90;;;;;;5063582;28;20044;-71
2023/05/23 07:04:06;;;;;;;13.20;2.58;;;12.90;99.90;;;;;;5061735;28;20048;-70
2023/05/23 07:06:34;;;;;;;8.18;2.70;;;13.00;99.90;;;;;;5052289;28;20052;-72
2023/05/23 07:09:02;;;;;;;10.93;2.67;;;13.10;99.90;;;;;;5077815;28;20056;-72
2023/05/23 07:11:29;;;;;;;10.90;2.83;;;13.20;99.90;;;;;;5067718;28;20044;-72
2023/05/23 07:13:56;;;;;;;7.05;2.35;;;13.30;99.90;;;;;;5068078;28;20045;-72
2023/05/23 07:16:23;;;;;;;14.40;3.45;;;13.40;99.90;;;;;;5062707;28;20082;-72
2023/05/23 07:18:50;;;;;;;15.00;4.30;;;13.50;99.90;;;;;;5066382;28;20045;-70
2023/05/23 07:21:17;;;;;;;10.23;3.38;;;13.60;99.90;;;;;;5066732;28;20044;-70
2023/05/23 07:23:44;;;;;;;8.38;2.10;;;13.70;99.90;;;;;;5067012;28;20040;-71
2023/05/23 07:26:10;;;;;;;13.30;2.70;;;13.70;99.90;;;;;;5064766;28;20048;-72
2023/05/23 07:28:37;;;;;;;19.25;4.47;;;13.70;99.90;;;;;;5059948;28;20044;-71
2023/05/23 07:31:04;;;;;;;12.93;3.63;;;13.70;99.90;;;;;;5067795;28;20044;-71
2023/05/23 07:33:33;;;;;;;9.68;2.50;;;13.80;99.90;;;;;;5066946;28;20047;-71
2023/05/23 07:36:00;;;;;;;9.23;2.53;;;13.80;99.90;;;;;;5067229;28;20102;-70
2023/05/23 07:38:27;;;;;;;11.27;2.85;;;13.90;99.90;;;;;;5072693;28;20048;-70
2023/05/23 07:40:53;;;;;;;7.65;2.55;;;13.90;99.90;;;;;;5067220;28;20048;-70
2023/05/23 07:43:36;;;;;;;7.60;2.42;;;14.00;99.90;;;;;;5061724;28;20056;-70
2023/05/23 07:46:02;;;;;;;17.98;2.55;;;14.20;99.90;;;;;;5073216;28;20430;-71
2023/05/23 07:48:30;;;;;;;10.63;2.20;;;14.30;99.90;;;;;;5067138;28;20043;-71
2023/05/23 07:50:57;;;;;;;13.18;3.13;;;14.40;99.90;;;;;;5065901;28;20491;-71
2023/05/23 07:53:24;;;;;;;10.77;2.53;;;14.50;99.90;;;;;;5066906;28;20082;-71
2023/05/23 07:55:51;;;;;;;7.82;2.53;;;14.40;99.90;;;;;;5066852;28;20437;-71
2023/05/23 07:58:18;;;;;;;14.60;3.65;;;14.40;99.90;;;;;;5046994;28;20495;-70
2023/05/23 08:00:45;;;;;;;19.70;3.35;;;14.40;99.90;;;;;;5067619;28;20048;-70
2023/05/23 08:03:12;;;;;;;9.95;2.58;;;14.50;99.90;;;;;;5067175;28;20178;-71
2023/05/23 08:05:39;;;;;;;11.13;2.17;;;14.50;99.90;;;;;;5067462;28;20056;-70
2023/05/23 08:08:06;;;;;;;9.00;2.50;;;14.50;99.90;;;;;;5066962;28;20094;-70
2023/05/23 08:10:32;;;;;;;11.90;2.65;;;14.50;99.90;;;;;;5067353;28;20545;-71
2023/05/23 08:12:59;;;;;;;9.85;2.78;;;14.50;99.90;;;;;;5067166;28;20040;-71
2023/05/23 08:15:27;;;;;;;14.07;2.97;;;14.60;99.90;;;;;;5067509;28;20044;-71
2023/05/23 08:17:55;;;;;;;12.57;2.72;;;14.70;99.90;;;;;;5067899;28;20052;-70
2023/05/23 08:20:29;;;;;;;17.85;2.67;;;14.80;99.90;;;;;;5068180;28;20052;-71
2023/05/23 08:22:59;;;;;;;7.65;2.67;;;14.90;99.90;;;;;;5068620;28;20477;-70
2023/05/23 08:25:30;;;;;;;8.68;1.92;;;14.90;99.90;;;;;;5077795;28;20067;-71
2023/05/23 08:27:57;;;;;;;8.82;2.53;;;15.00;99.90;;;;;;5067535;28;20094;-71
2023/05/23 08:30:24;;;;;;;7.32;1.90;;;15.10;99.90;;;;;;5067890;28;20121;-71
2023/05/23 08:32:52;;;;;;;8.93;2.25;;;15.10;99.90;;;;;;5067886;28;20044;-71
2023/05/23 08:35:19;;;;;;;11.45;2.50;;;15.20;99.90;;;;;;5069018;28;20044;-71
2023/05/23 08:37:46;;;;;;;6.70;1.83;;;15.30;99.90;;;;;;5068311;28;20492;-71
2023/05/23 08:40:13;;;;;;;15.48;2.95;;;15.40;99.90;;;;;;5068075;28;20076;-71
2023/05/23 08:42:40;;;;;;;12.73;2.03;;;15.40;99.90;;;;;;5068047;28;20049;-71
2023/05/23 08:45:08;;;;;;;8.93;2.22;;;15.40;99.90;;;;;;5062238;28;20058;-71
2023/05/23 08:47:37;;;;;;;11.95;2.20;;;15.40;99.90;;;;;;5052734;28;20415;-71
2023/05/23 08:50:07;;;;;;;9.27;2.30;;;15.50;99.90;;;;;;5060301;28;20044;-71
2023/05/23 08:52:34;;;;;;;10.90;2.55;;;15.60;99.90;;;;;;5062890;28;20045;-71
2023/05/23 08:55:01;;;;;;;15.27;2.58;;;15.70;99.90;;;;;;5035509;28;20089;-72
2023/05/23 08:57:29;;;;;;;8.43;2.42;;;15.80;99.90;;;;;;5062067;28;20179;-71
2023/05/23 08:59:56;;;;;;;10.93;2.75;;;15.70;99.90;;;;;;5066853;28;20044;-71
2023/05/23 09:02:23;;;;;;;15.38;3.40;;;15.70;99.90;;;;;;5059524;28;20048;-72
2023/05/23 09:04:50;;;;;;;14.52;3.33;;;15.80;99.90;;;;;;5070449;28;20102;-72
2023/05/23 09:07:16;;;;;;;13.35;3.15;;;15.80;99.90;;;;;;5062807;28;20082;-71
2023/05/23 09:09:43;;;;;;;24.90;3.78;;;15.80;99.90;;;;;;5078331;28;20132;-72
2023/05/23 09:12:12;;;;;;;8.45;2.70;;;15.70;99.90;;;;;;5080979;28;20373;-72
2023/05/23 09:14:39;;;;;;;8.27;2.20;;;15.70;99.90;;;;;;5060220;28;20076;-72
2023/05/23 09:17:06;;;;;;;6.22;2.80;;;15.70;99.90;;;;;;5080770;28;20075;-73
2023/05/23 09:19:33;;;;;;;8.90;2.40;;;15.70;99.90;;;;;;5070686;28;20044;-71
2023/05/23 09:22:01;;;;;;;8.45;2.47;;;15.70;99.90;;;;;;5070352;28;20098;-72
2023/05/23 09:24:35;;;;;;;14.02;3.13;;;15.70;99.90;;;;;;5070734;28;20442;-72
2023/05/23 09:27:04;;;;;;;15.70;4.07;;;15.80;99.90;;;;;;5070559;28;20413;-72
2023/05/23 09:29:30;;;;;;;9.50;2.47;;;15.80;99.90;;;;;;5071128;28;20110;-72
2023/05/23 09:32:11;;;;;;;4.85;2.20;;;15.90;99.90;;;;;;5064359;28;20056;-71
2023/05/23 09:34:53;;;;;;;10.38;2.22;;;15.80;99.90;;;;;;5075134;28;20047;-71
2023/05/23 09:37:23;;;;;;;7.32;2.50;;;15.70;99.90;;;;;;5070169;28;20052;-72
2023/05/23 09:39:50;;;;;;;9.02;2.20;;;15.80;99.90;;;;;;5070630;28;20484;-72
2023/05/23 09:42:24;;;;;;;9.20;2.42;;;15.80;99.90;;;;;;5070199;28;20140;-72
2023/05/23 09:44:50;;;;;;;8.70;2.50;;;15.80;99.90;;;;;;5068364;28;20504;-72
2023/05/23 09:47:17;;;;;;;10.60;2.20;;;15.90;99.90;;;;;;5046158;28;20097;-72
2023/05/23 09:49:45;;;;;;;10.75;2.70;;;15.90;99.90;;;;;;5075299;28;20037;-72
2023/05/23 09:52:12;;;;;;;13.68;3.20;;;15.90;99.90;;;;;;5074831;28;20101;-71
2023/05/23 09:54:39;;;;;;;13.38;3.40;;;15.90;99.90;;;;;;5059884;28;20052;-72
2023/05/23 09:57:09;;;;;;;8.07;2.42;;;16.00;99.90;;;;;;5077047;28;20052;-72
2023/05/23 09:59:41;;;;;;;12.20;2.22;;;16.00;99.90;;;;;;5059570;28;20032;-72
2023/05/23 10:02:10;;;;;;;9.13;3.10;;;16.10;99.90;;;;;;5077016;28;20128;-71
2023/05/23 10:04:38;;;;;;;12.02;2.10;;;16.20;99.90;;;;;;5054310;28;20060;-72
2023/05/23 10:07:16;;;;;;;9.40;2.13;;;16.40;99.90;;;;;;5058247;28;20049;-72
2023/05/23 10:09:53;;;;;;;10.13;2.05;;;16.70;99.90;;;;;;5072892;28;20057;-73
2023/05/23 10:12:46;;;;;;;9.20;2.30;;;16.80;99.90;;;;;;5071533;28;20051;-73
2023/05/23 10:15:15;;;;;;;8.55;2.47;;;17.00;98.70;;;;;;5079962;28;20060;-72
2023/05/23 10:17:51;;;;;;;7.68;1.73;;;17.10;99.30;;;;;;5076101;28;20151;-71
2023/05/23 10:20:18;;;;;;;7.63;1.85;;;17.20;98.30;;;;;;5065740;28;20152;-71
2023/05/23 10:22:45;;;;;;;8.48;2.75;;;17.30;98.30;;;;;;5075054;28;20045;-72
2023/05/23 10:25:12;;;;;;;10.85;2.20;;;17.30;98.20;;;;;;5036407;28;20075;-72
2023/05/23 10:27:39;;;;;;;7.40;1.67;;;17.20;97.80;;;;;;5061313;28;20056;-73
2023/05/23 10:30:06;;;;;;;8.27;2.17;;;17.10;97.80;;;;;;5069478;28;20529;-72
2023/05/23 10:32:34;;;;;;;16.60;3.20;;;17.10;97.60;;;;;;5068562;28;20055;-72
2023/05/23 10:35:13;;;;;;;17.63;3.63;;;17.30;98.10;;;;;;5079493;28;20110;-72
2023/05/23 10:37:56;;;;;;;9.02;2.88;;;17.70;96.60;;;;;;5069402;28;20452;-72
2023/05/23 10:40:26;;;;;;;10.77;2.53;;;18.00;96.00;;;;;;5048459;28;20049;-73
2023/05/23 10:43:21;;;;;;;11.60;2.40;;;18.20;96.90;;;;;;5066868;28;20041;-71
2023/05/23 10:45:49;;;;;;;12.95;3.60;;;18.20;95.60;;;;;;5060277;28;20048;-71
2023/05/23 10:48:31;;;;;;;10.40;2.33;;;18.20;96.60;;;;;;5068519;28;20562;-71
2023/05/23 10:51:08;;;;;;;10.18;3.08;;;18.20;95.90;;;;;;5069053;28;20068;-71
2023/05/23 10:53:36;;;;;;;8.73;2.72;;;18.30;95.30;;;;;;5072499;28;20131;-71
2023/05/23 10:56:22;;;;;;;10.30;4.13;;;18.40;95.70;;;;;;5067704;28;20327;-72
2023/05/23 10:58:53;;;;;;;11.63;3.05;;;18.40;95.60;;;;;;5061132;28;20045;-71
2023/05/23 11:01:20;;;;;;;16.20;3.83;;;18.50;94.90;;;;;;5067885;28;20147;-70
2023/05/23 11:03:47;;;;;;;8.18;2.20;;;18.50;95.50;;;;;;5066166;28;20041;-70
2023/05/23 11:06:37;;;;;;;9.30;3.00;;;18.60;95.20;;;;;;5066624;28;20083;-71
2023/05/23 11:09:05;;;;;;;13.90;2.90;;;18.70;94.20;;;;;;5066937;28;20037;-72
2023/05/23 11:11:53;;;;;;;11.30;2.47;;;18.80;94.80;;;;;;5039732;28;20103;-72
2023/05/23 11:14:30;;;;;;;10.48;2.70;;;19.00;93.80;;;;;;5066944;28;20048;-72
2023/05/23 11:16:57;;;;;;;8.95;2.95;;;19.10;94.80;;;;;;5068759;28;20048;-72
2023/05/23 11:19:26;;;;;;;15.77;2.85;;;19.10;94.80;;;;;;5045998;28;20051;-72
2023/05/23 11:22:00;;;;;;;4.60;2.15;;;19.20;94.40;;;;;;4710620;28;9999733;-73
2023/05/23 11:24:50;;;;;;;12.63;2.60;;;19.40;93.90;;;;;;5063597;28;20044;-73
2023/05/23 11:27:27;;;;;;;8.13;2.40;;;19.30;92.30;;;;;;5065223;28;20056;-72
2023/05/23 11:29:58;;;;;;;9.57;2.80;;;19.30;93.80;;;;;;5038876;28;20094;-73
2023/05/23 11:32:28;;;;;;;12.18;2.92;;;19.10;92.40;;;;;;5065090;28;20036;-71
2023/05/23 11:34:54;;;;;;;8.93;2.67;;;19.20;93.80;;;;;;5063546;28;20059;-73
2023/05/23 11:37:22;;;;;;;10.70;2.60;;;19.30;93.50;;;;;;5035768;28;20088;-72
2023/05/23 11:39:52;;;;;;;9.60;2.30;;;19.50;93.40;;;;;;5063183;28;20048;-71
2023/05/23 11:42:19;;;;;;;9.63;3.00;;;19.60;93.00;;;;;;5058345;28;20054;-73
2023/05/23 11:44:49;;;;;;;14.27;2.60;;;19.40;92.10;;;;;;5064546;28;20036;-72
2023/05/23 11:47:16;;;;;;;9.82;2.10;;;19.50;92.70;;;;;;5064368;28;20055;-73
2023/05/23 11:49:46;;;;;;;7.85;1.98;;;19.50;92.30;;;;;;5070821;28;20052;-73
2023/05/23 11:52:13;;;;;;;13.80;2.20;;;19.50;92.00;;;;;;5061493;28;20130;-72
2023/05/23 11:54:43;;;;;;;6.82;2.30;;;19.50;91.90;;;;;;5068399;28;20601;-73
2023/05/23 11:57:13;;;;;;;10.32;2.78;;;19.50;92.10;;;;;;5059456;28;20044;-72
2023/05/23 11:59:41;;;;;;;8.65;2.25;;;19.60;92.20;;;;;;5060813;28;20109;-72
2023/05/23 12:02:07;;;;;;;16.95;3.05;;;19.50;91.40;;;;;;5067852;28;20113;-72
2023/05/23 12:04:37;;;;;;;5.15;1.80;;;19.50;91.60;;;;;;5067036;28;20052;-70
2023/05/23 12:07:05;;;;;;;7.35;2.33;;;19.60;91.90;;;;;;5066123;28;20143;-73
2023/05/23 12:09:41;;;;;;;6.70;2.25;;;19.60;91.60;;;;;;5064502;28;20052;-72
2023/05/23 12:12:08;;;;;;;9.00;2.42;;;19.60;90.60;;;;;;5064734;28;20044;-71
2023/05/23 12:14:35;;;;;;;13.60;2.28;;;19.80;91.90;;;;;;5074873;28;20052;-71
2023/05/23 12:17:02;;;;;;;14.45;3.58;;;19.90;92.10;;;;;;5053612;28;20040;-72
2023/05/23 12:19:28;;;;;;;6.35;2.22;;;19.80;91.30;;;;;;5076978;28;20052;-74
2023/05/23 12:21:55;;;;;;;7.97;2.20;;;19.80;91.40;;;;;;5063857;28;20323;-72
2023/05/23 12:24:22;;;;;;;12.30;3.60;;;19.90;91.80;;;;;;5064546;28;20052;-72
2023/05/23 12:26:54;;;;;;;8.57;2.88;;;20.10;91.80;;;;;;5060718;28;20548;-73
2023/05/23 12:29:33;;;;;;;9.23;2.45;;;20.10;90.90;;;;;;5066913;28;20098;-72
2023/05/23 12:32:02;;;;;;;9.65;2.63;;;20.00;89.60;;;;;;5063632;28;20094;-72
2023/05/23 12:34:29;;;;;;;10.82;2.83;;;19.50;90.60;;;;;;5067737;28;20286;-73
2023/05/23 12:36:56;;;;;;;8.73;2.20;;;19.40;91.50;;;;;;5070833;28;20049;-73
2023/05/23 12:39:44;;;;;;;9.73;2.13;;;19.50;92.00;;;;;;5072207;28;20143;-73
2023/05/23 12:42:11;;;;;;;8.35;2.15;;;19.50;91.50;;;;;;5063691;28;20147;-72
2023/05/23 12:44:40;;;;;;;10.20;2.42;;;19.40;91.20;;;;;;5072047;28;20450;-73
2023/05/23 12:47:07;;;;;;;6.45;2.15;;;19.30;91.50;;;;;;5071229;28;20047;-73